sensor_id;sensor_type;location;lat;lon;timestamp;pressure;altitude;pressure_sealevel;temperature;humidity
37848;BME280;23688;33.130;-117.188;2023-05-08T00:01:28;99719.91;;;18.56;66.94
37848;BME280;23688;33.130;-117.188;2023-05-08T00:03:56;99717.00;;;18.34;68.47
37848;BME280;23688;33.130;-117.188;2023-05-08T00:06:23;99727.72;;;18.50;65.42
37848;BME280;23688;33.130;-117.188;2023-05-08T00:08:50;99729.06;;;18.20;68.26
37848;BME280;23688;33.130;-117.188;2023-05-08T00:11:17;99712.25;;;18.09;67.86
37848;BME280;23688;33.130;-117.188;2023-05-08T00:13:44;99727.75;;;17.92;69.75
37848;BME280;23688;33.130;-117.188;2023-05-08T00:16:11;99716.31;;;17.85;70.40
37848;BME280;23688;33.130;-117.188;2023-05-08T00:18:39;99719.47;;;18.24;68.85
37848;BME280;23688;33.130;-117.188;2023-05-08T00:21:06;99726.81;;;18.48;68.32
37848;BME280;23688;33.130;-117.188;2023-05-08T00:23:33;99712.03;;;18.57;67.92
37848;BME280;23688;33.130;-117.188;2023-05-08T00:26:00;99715.19;;;18.99;67.68
37848;BME280;23688;33.130;-117.188;2023-05-08T00:28:27;99714.66;;;18.56;67.39
37848;BME280;23688;33.130;-117.188;2023-05-08T00:30:54;99715.75;;;18.08;70.96
37848;BME280;23688;33.130;-117.188;2023-05-08T00:33:21;99707.69;;;17.97;69.17
37848;BME280;23688;33.130;-117.188;2023-05-08T00:35:47;99712.25;;;18.09;68.58
37848;BME280;23688;33.130;-117.188;2023-05-08T00:38:14;99708.13;;;18.25;66.86
37848;BME280;23688;33.130;-117.188;2023-05-08T00:40:41;99707.44;;;18.39;65.32
37848;BME280;23688;33.130;-117.188;2023-05-08T00:43:08;99694.88;;;18.17;66.48
37848;BME280;23688;33.130;-117.188;2023-05-08T00:45:36;99705.31;;;18.14;68.68
37848;BME280;23688;33.130;-117.188;2023-05-08T00:48:06;99702.63;;;18.08;68.30
37848;BME280;23688;33.130;-117.188;2023-05-08T00:50:34;99708.53;;;17.94;71.45
37848;BME280;23688;33.130;-117.188;2023-05-08T00:53:02;99684.97;;;17.98;72.06
37848;BME280;23688;33.130;-117.188;2023-05-08T00:55:31;99707.09;;;17.59;75.24
37848;BME280;23688;33.130;-117.188;2023-05-08T00:57:58;99704.81;;;17.28;79.16
37848;BME280;23688;33.130;-117.188;2023-05-08T01:00:25;99691.56;;;17.21;79.22
37848;BME280;23688;33.130;-117.188;2023-05-08T01:02:53;99683.16;;;17.40;79.20
37848;BME280;23688;33.130;-117.188;2023-05-08T01:05:19;99680.03;;;17.64;76.21
37848;BME280;23688;33.130;-117.188;2023-05-08T01:07:47;99692.63;;;17.84;73.38
37848;BME280;23688;33.130;-117.188;2023-05-08T01:10:14;99689.84;;;17.76;74.67
37848;BME280;23688;33.130;-117.188;2023-05-08T01:13:09;99694.13;;;17.18;80.46
37848;BME280;23688;33.130;-117.188;2023-05-08T01:16:02;99690.66;;;17.19;80.00
37848;BME280;23688;33.130;-117.188;2023-05-08T01:18:41;99696.63;;;17.10;81.50
37848;BME280;23688;33.130;-117.188;2023-05-08T01:26:33;99694.38;;;17.31;82.98
37848;BME280;23688;33.130;-117.188;2023-05-08T01:38:21;99697.63;;;16.73;86.03
37848;BME280;23688;33.130;-117.188;2023-05-08T01:43:40;99701.94;;;16.28;89.21
37848;BME280;23688;33.130;-117.188;2023-05-08T01:46:16;99701.03;;;16.26;89.57
37848;BME280;23688;33.130;-117.188;2023-05-08T01:48:49;99695.78;;;16.26;89.40
37848;BME280;23688;33.130;-117.188;2023-05-08T01:51:21;99703.28;;;16.09;89.32
37848;BME280;23688;33.130;-117.188;2023-05-08T01:53:55;99697.63;;;15.91;90.56
37848;BME280;23688;33.130;-117.188;2023-05-08T01:56:27;99707.50;;;15.66;92.01
37848;BME280;23688;33.130;-117.188;2023-05-08T01:58:58;99695.72;;;15.49;93.00
37848;BME280;23688;33.130;-117.188;2023-05-08T02:01:26;99686.59;;;15.33;94.11
37848;BME280;23688;33.130;-117.188;2023-05-08T02:03:55;99699.63;;;15.30;94.44
37848;BME280;23688;33.130;-117.188;2023-05-08T02:06:24;99702.78;;;15.18;95.81
37848;BME280;23688;33.130;-117.188;2023-05-08T02:08:54;99693.75;;;15.05;97.83
37848;BME280;23688;33.130;-117.188;2023-05-08T02:11:23;99702.53;;;15.07;98.61
37848;BME280;23688;33.130;-117.188;2023-05-08T02:13:51;99699.19;;;15.13;99.08
37848;BME280;23688;33.130;-117.188;2023-05-08T02:16:20;99694.81;;;15.13;98.70
37848;BME280;23688;33.130;-117.188;2023-05-08T02:18:59;99689.81;;;14.89;100.00
37848;BME280;23688;33.130;-117.188;2023-05-08T02:21:27;99694.38;;;14.96;100.00
37848;BME280;23688;33.130;-117.188;2023-05-08T02:23:56;99702.47;;;15.06;100.00
37848;BME280;23688;33.130;-117.188;2023-05-08T02:26:24;99698.00;;;15.02;100.00
37848;BME280;23688;33.130;-117.188;2023-05-08T02:28:55;99698.59;;;14.91;100.00
37848;BME280;23688;33.130;-117.188;2023-05-08T02:31:23;99687.63;;;15.05;100.00
37848;BME280;23688;33.130;-117.188;2023-05-08T02:33:52;99691.50;;;14.87;100.00
37848;BME280;23688;33.130;-117.188;2023-05-08T02:36:18;99702.66;;;15.12;99.94
37848;BME280;23688;33.130;-117.188;2023-05-08T02:38:53;99681.97;;;14.88;99.46
37848;BME280;23688;33.130;-117.188;2023-05-08T02:41:23;99706.19;;;14.82;99.78
37848;BME280;23688;33.130;-117.188;2023-05-08T02:43:53;99701.09;;;14.87;99.29
37848;BME280;23688;33.130;-117.188;2023-05-08T02:51:49;99705.91;;;14.71;99.43
37848;BME280;23688;33.130;-117.188;2023-05-08T02:54:42;99704.69;;;14.59;99.84
37848;BME280;23688;33.130;-117.188;2023-05-08T02:59:50;99718.38;;;14.51;100.00
37848;BME280;23688;33.130;-117.188;2023-05-08T03:02:36;99718.00;;;14.39;100.00
37848;BME280;23688;33.130;-117.188;2023-05-08T03:05:28;99690.72;;;14.29;100.00
37848;BME280;23688;33.130;-117.188;2023-05-08T03:08:09;99705.47;;;14.56;100.00
37848;BME280;23688;33.130;-117.188;2023-05-08T03:10:42;99710.94;;;14.65;100.00
37848;BME280;23688;33.130;-117.188;2023-05-08T03:13:11;99714.91;;;14.52;100.00
37848;BME280;23688;33.130;-117.188;2023-05-08T03:16:01;99711.78;;;14.64;100.00
37848;BME280;23688;33.130;-117.188;2023-05-08T03:18:40;99725.28;;;14.49;100.00
37848;BME280;23688;33.130;-117.188;2023-05-08T03:21:09;99709.19;;;14.35;100.00
37848;BME280;23688;33.130;-117.188;2023-05-08T03:23:38;99716.97;;;14.63;100.00
37848;BME280;23688;33.130;-117.188;2023-05-08T03:26:07;99719.03;;;14.74;100.00
37848;BME280;23688;33.130;-117.188;2023-05-08T03:28:36;99714.94;;;14.83;100.00
37848;BME280;23688;33.130;-117.188;2023-05-08T03:31:04;99729.94;;;14.60;100.00
37848;BME280;23688;33.130;-117.188;2023-05-08T03:33:32;99727.75;;;14.73;100.00
37848;BME280;23688;33.130;-117.188;2023-05-08T03:36:00;99726.28;;;14.83;100.00
37848;BME280;23688;33.130;-117.188;2023-05-08T03:38:28;99736.97;;;14.61;100.00
37848;BME280;23688;33.130;-117.188;2023-05-08T03:40:55;99734.34;;;14.61;100.00
37848;BME280;23688;33.130;-117.188;2023-05-08T03:43:23;99736.84;;;14.58;100.00
37848;BME280;23688;33.130;-117.188;2023-05-08T03:45:50;99724.28;;;14.46;100.00
37848;BME280;23688;33.130;-117.188;2023-05-08T03:48:19;99739.66;;;14.64;100.00
37848;BME280;23688;33.130;-117.188;2023-05-08T03:50:49;99747.63;;;14.68;100.00
37848;BME280;23688;33.130;-117.188;2023-05-08T03:53:16;99733.03;;;14.46;100.00
37848;BME280;23688;33.130;-117.188;2023-05-08T03:55:43;99750.59;;;14.52;100.00
37848;BME280;23688;33.130;-117.188;2023-05-08T04:06:33;99764.47;;;14.49;100.00
37848;BME280;23688;33.130;-117.188;2023-05-08T04:09:13;99758.56;;;14.28;100.00
37848;BME280;23688;33.130;-117.188;2023-05-08T04:12:14;99769.25;;;14.35;100.00
37848;BME280;23688;33.130;-117.188;2023-05-08T04:14:48;99753.63;;;14.37;100.00
37848;BME280;23688;33.130;-117.188;2023-05-08T04:17:40;99765.41;;;14.82;100.00
37848;BME280;23688;33.130;-117.188;2023-05-08T04:20:10;99772.00;;;14.99;100.00
37848;BME280;23688;33.130;-117.188;2023-05-08T04:22:39;99764.50;;;15.11;100.00
37848;BME280;23688;33.130;-117.188;2023-05-08T04:25:10;99761.94;;;15.13;100.00
37848;BME280;23688;33.130;-117.188;2023-05-08T04:27:38;99763.81;;;15.18;100.00
37848;BME280;23688;33.130;-117.188;2023-05-08T04:30:06;99757.72;;;15.18;99.95
37848;BME280;23688;33.130;-117.188;2023-05-08T04:32:34;99759.72;;;15.28;99.27
37848;BME280;23688;33.130;-117.188;2023-05-08T04:35:03;99752.59;;;15.23;99.09
37848;BME280;23688;33.130;-117.188;2023-05-08T04:37:31;99767.44;;;15.22;99.19
37848;BME280;23688;33.130;-117.188;2023-05-08T04:39:59;99767.63;;;15.30;98.28
37848;BME280;23688;33.130;-117.188;2023-05-08T04:42:26;99753.69;;;15.31;97.77
37848;BME280;23688;33.130;-117.188;2023-05-08T04:44:53;99773.19;;;15.42;96.97
37848;BME280;23688;33.130;-117.188;2023-05-08T04:47:21;99762.75;;;15.44;96.31
37848;BME280;23688;33.130;-117.188;2023-05-08T04:49:49;99761.72;;;15.38;96.12
37848;BME280;23688;33.130;-117.188;2023-05-08T04:52:16;99767.56;;;15.28;96.35
37848;BME280;23688;33.130;-117.188;2023-05-08T04:54:43;99757.97;;;15.27;96.11
37848;BME280;23688;33.130;-117.188;2023-05-08T04:57:13;99772.13;;;15.35;95.53
37848;BME280;23688;33.130;-117.188;2023-05-08T04:59:40;99773.88;;;15.35;94.98
37848;BME280;23688;33.130;-117.188;2023-05-08T05:02:07;99756.97;;;15.22;94.66
37848;BME280;23688;33.130;-117.188;2023-05-08T05:04:34;99755.97;;;15.17;95.00
37848;BME280;23688;33.130;-117.188;2023-05-08T05:07:02;99762.13;;;15.20;95.21
37848;BME280;23688;33.130;-117.188;2023-05-08T05:09:29;99755.03;;;15.15;95.35
37848;BME280;23688;33.130;-117.188;2023-05-08T05:11:56;99754.72;;;15.04;95.57
37848;BME280;23688;33.130;-117.188;2023-05-08T05:14:23;99753.75;;;15.01;95.79
37848;BME280;23688;33.130;-117.188;2023-05-08T05:16:50;99771.19;;;15.02;95.92
37848;BME280;23688;33.130;-117.188;2023-05-08T05:19:17;99763.03;;;14.89;96.60
37848;BME280;23688;33.130;-117.188;2023-05-08T05:21:45;99773.47;;;14.89;96.73
37848;BME280;23688;33.130;-117.188;2023-05-08T05:24:13;99761.00;;;14.79;96.82
37848;BME280;23688;33.130;-117.188;2023-05-08T05:26:40;99777.59;;;14.81;97.19
37848;BME280;23688;33.130;-117.188;2023-05-08T05:29:07;99771.44;;;14.79;97.64
37848;BME280;23688;33.130;-117.188;2023-05-08T05:31:34;99758.25;;;14.74;97.70
37848;BME280;23688;33.130;-117.188;2023-05-08T05:34:01;99769.84;;;14.84;97.77
37848;BME280;23688;33.130;-117.188;2023-05-08T05:36:31;99767.28;;;14.86;97.41
37848;BME280;23688;33.130;-117.188;2023-05-08T05:39:00;99772.44;;;14.83;97.13
37848;BME280;23688;33.130;-117.188;2023-05-08T05:41:28;99753.91;;;14.75;96.97
37848;BME280;23688;33.130;-117.188;2023-05-08T05:43:54;99777.75;;;14.86;97.43
37848;BME280;23688;33.130;-117.188;2023-05-08T05:46:22;99757.63;;;14.83;97.44
37848;BME280;23688;33.130;-117.188;2023-05-08T05:48:56;99771.78;;;14.91;97.04
37848;BME280;23688;33.130;-117.188;2023-05-08T05:51:23;99751.59;;;14.86;97.13
37848;BME280;23688;33.130;-117.188;2023-05-08T05:53:50;99762.31;;;14.95;96.69
37848;BME280;23688;33.130;-117.188;2023-05-08T05:56:17;99756.09;;;14.91;96.38
37848;BME280;23688;33.130;-117.188;2023-05-08T05:58:46;99764.00;;;14.93;96.44
37848;BME280;23688;33.130;-117.188;2023-05-08T06:01:13;99765.56;;;14.86;96.44
37848;BME280;23688;33.130;-117.188;2023-05-08T06:03:40;99761.94;;;14.81;96.57
37848;BME280;23688;33.130;-117.188;2023-05-08T06:06:07;99762.81;;;14.82;96.51
37848;BME280;23688;33.130;-117.188;2023-05-08T06:08:34;99761.84;;;14.78;96.72
37848;BME280;23688;33.130;-117.188;2023-05-08T06:11:01;99758.31;;;14.77;96.66
37848;BME280;23688;33.130;-117.188;2023-05-08T06:13:28;99765.22;;;14.74;96.73
37848;BME280;23688;33.130;-117.188;2023-05-08T06:15:55;99763.44;;;14.73;96.81
37848;BME280;23688;33.130;-117.188;2023-05-08T06:18:22;99765.22;;;14.74;97.05
37848;BME280;23688;33.130;-117.188;2023-05-08T06:20:57;99766.88;;;14.72;97.02
37848;BME280;23688;33.130;-117.188;2023-05-08T06:23:24;99756.28;;;14.67;97.55
37848;BME280;23688;33.130;-117.188;2023-05-08T06:25:52;99754.53;;;14.66;97.41
37848;BME280;23688;33.130;-117.188;2023-05-08T06:28:19;99749.25;;;14.65;97.21
37848;BME280;23688;33.130;-117.188;2023-05-08T06:30:47;99762.47;;;14.69;97.35
37848;BME280;23688;33.130;-117.188;2023-05-08T06:33:14;99760.59;;;14.65;97.36
37848;BME280;23688;33.130;-117.188;2023-05-08T06:35:45;99754.31;;;14.59;97.95
37848;BME280;23688;33.130;-117.188;2023-05-08T06:38:13;99754.25;;;14.57;97.99
37848;BME280;23688;33.130;-117.188;2023-05-08T06:40:44;99751.47;;;14.52;98.26
37848;BME280;23688;33.130;-117.188;2023-05-08T06:43:13;99757.66;;;14.54;98.25
37848;BME280;23688;33.130;-117.188;2023-05-08T06:45:40;99747.78;;;14.46;98.54
37848;BME280;23688;33.130;-117.188;2023-05-08T06:48:08;99755.63;;;14.46;98.99
37848;BME280;23688;33.130;-117.188;2023-05-08T06:50:39;99744.94;;;14.38;99.33
37848;BME280;23688;33.130;-117.188;2023-05-08T06:53:07;99741.53;;;14.41;99.41
37848;BME280;23688;33.130;-117.188;2023-05-08T06:55:34;99732.59;;;14.32;99.64
37848;BME280;23688;33.130;-117.188;2023-05-08T06:58:01;99734.34;;;14.33;99.67
37848;BME280;23688;33.130;-117.188;2023-05-08T07:00:28;99730.84;;;14.31;99.88
37848;BME280;23688;33.130;-117.188;2023-05-08T07:02:55;99737.88;;;14.34;100.00
37848;BME280;23688;33.130;-117.188;2023-05-08T07:05:22;99722.91;;;14.28;100.00
37848;BME280;23688;33.130;-117.188;2023-05-08T07:07:49;99731.66;;;14.30;100.00
37848;BME280;23688;33.130;-117.188;2023-05-08T07:10:20;99732.53;;;14.31;100.00
37848;BME280;23688;33.130;-117.188;2023-05-08T07:12:50;99717.38;;;14.18;100.00
37848;BME280;23688;33.130;-117.188;2023-05-08T07:15:17;99727.06;;;14.22;100.00
37848;BME280;23688;33.130;-117.188;2023-05-08T07:17:44;99721.66;;;14.16;100.00
37848;BME280;23688;33.130;-117.188;2023-05-08T07:20:11;99717.13;;;14.10;100.00
37848;BME280;23688;33.130;-117.188;2023-05-08T07:22:37;99719.53;;;14.04;100.00
37848;BME280;23688;33.130;-117.188;2023-05-08T07:25:04;99725.53;;;14.00;100.00
37848;BME280;23688;33.130;-117.188;2023-05-08T07:27:30;99724.34;;;13.90;100.00
37848;BME280;23688;33.130;-117.188;2023-05-08T07:29:57;99730.22;;;13.83;100.00
37848;BME280;23688;33.130;-117.188;2023-05-08T07:32:29;99723.13;;;13.79;100.00
37848;BME280;23688;33.130;-117.188;2023-05-08T07:34:56;99715.19;;;13.76;100.00
37848;BME280;23688;33.130;-117.188;2023-05-08T07:37:22;99716.00;;;13.75;100.00
37848;BME280;23688;33.130;-117.188;2023-05-08T07:39:48;99722.97;;;13.74;100.00
37848;BME280;23688;33.130;-117.188;2023-05-08T07:42:15;99710.50;;;13.65;100.00
37848;BME280;23688;33.130;-117.188;2023-05-08T07:44:43;99716.66;;;13.67;100.00
37848;BME280;23688;33.130;-117.188;2023-05-08T07:47:09;99722.63;;;13.63;100.00
37848;BME280;23688;33.130;-117.188;2023-05-08T07:49:36;99718.03;;;13.56;100.00
37848;BME280;23688;33.130;-117.188;2023-05-08T07:52:02;99715.44;;;13.56;100.00
37848;BME280;23688;33.130;-117.188;2023-05-08T07:54:31;99715.28;;;13.52;100.00
37848;BME280;23688;33.130;-117.188;2023-05-08T07:56:57;99708.91;;;13.43;100.00
37848;BME280;23688;33.130;-117.188;2023-05-08T07:59:23;99726.38;;;13.46;100.00
37848;BME280;23688;33.130;-117.188;2023-05-08T08:01:50;99727.22;;;13.45;100.00
37848;BME280;23688;33.130;-117.188;2023-05-08T08:04:17;99722.00;;;13.45;100.00
37848;BME280;23688;33.130;-117.188;2023-05-08T08:06:43;99705.25;;;13.38;100.00
37848;BME280;23688;33.130;-117.188;2023-05-08T08:09:09;99715.91;;;13.44;100.00
37848;BME280;23688;33.130;-117.188;2023-05-08T08:11:36;99717.56;;;13.42;100.00
37848;BME280;23688;33.130;-117.188;2023-05-08T08:14:02;99719.34;;;13.43;100.00
37848;BME280;23688;33.130;-117.188;2023-05-08T08:16:28;99710.59;;;13.41;100.00
37848;BME280;23688;33.130;-117.188;2023-05-08T08:18:55;99711.47;;;13.42;100.00
37848;BME280;23688;33.130;-117.188;2023-05-08T08:21:21;99706.09;;;13.37;100.00
37848;BME280;23688;33.130;-117.188;2023-05-08T08:23:47;99708.66;;;13.36;100.00
37848;BME280;23688;33.130;-117.188;2023-05-08T08:26:14;99720.03;;;13.38;100.00
37848;BME280;23688;33.130;-117.188;2023-05-08T08:28:40;99713.72;;;13.31;100.00
37848;BME280;23688;33.130;-117.188;2023-05-08T08:31:06;99711.66;;;13.22;100.00
37848;BME280;23688;33.130;-117.188;2023-05-08T08:33:33;99704.47;;;13.15;100.00
37848;BME280;23688;33.130;-117.188;2023-05-08T08:35:59;99701.16;;;13.21;100.00
37848;BME280;23688;33.130;-117.188;2023-05-08T08:38:25;99700.22;;;13.19;100.00
37848;BME280;23688;33.130;-117.188;2023-05-08T08:40:51;99693.19;;;13.16;100.00
37848;BME280;23688;33.130;-117.188;2023-05-08T08:43:18;99701.84;;;13.15;100.00
37848;BME280;23688;33.130;-117.188;2023-05-08T08:45:47;99689.53;;;13.11;100.00
37848;BME280;23688;33.130;-117.188;2023-05-08T08:48:13;99689.50;;;13.10;100.00
37848;BME280;23688;33.130;-117.188;2023-05-08T08:50:42;99684.94;;;13.04;100.00
37848;BME280;23688;33.130;-117.188;2023-05-08T08:53:24;99668.19;;;12.96;100.00
37848;BME280;23688;33.130;-117.188;2023-05-08T08:55:54;99677.75;;;12.97;100.00
37848;BME280;23688;33.130;-117.188;2023-05-08T09:00:51;99675.03;;;12.94;100.00
37848;BME280;23688;33.130;-117.188;2023-05-08T09:03:20;99674.94;;;12.91;100.00
37848;BME280;23688;33.130;-117.188;2023-05-08T09:05:46;99663.59;;;12.89;100.00
37848;BME280;23688;33.130;-117.188;2023-05-08T09:08:14;99660.88;;;12.85;100.00
37848;BME280;23688;33.130;-117.188;2023-05-08T09:10:40;99663.50;;;12.87;100.00
37848;BME280;23688;33.130;-117.188;2023-05-08T09:13:07;99662.63;;;12.87;100.00
37848;BME280;23688;33.130;-117.188;2023-05-08T09:15:33;99665.25;;;12.87;100.00
37848;BME280;23688;33.130;-117.188;2023-05-08T09:18:00;99658.16;;;12.82;100.00
37848;BME280;23688;33.130;-117.188;2023-05-08T09:20:28;99657.06;;;12.76;100.00
37848;BME280;23688;33.130;-117.188;2023-05-08T09:22:55;99647.28;;;12.70;100.00
37848;BME280;23688;33.130;-117.188;2023-05-08T09:25:22;99664.00;;;12.75;100.00
37848;BME280;23688;33.130;-117.188;2023-05-08T09:27:48;99655.25;;;12.73;100.00
37848;BME280;23688;33.130;-117.188;2023-05-08T09:30:15;99648.13;;;12.69;100.00
37848;BME280;23688;33.130;-117.188;2023-05-08T09:32:42;99662.09;;;12.71;100.00
37848;BME280;23688;33.130;-117.188;2023-05-08T09:35:10;99657.69;;;12.69;100.00
37848;BME280;23688;33.130;-117.188;2023-05-08T09:37:39;99658.50;;;12.68;100.00
37848;BME280;23688;33.130;-117.188;2023-05-08T09:40:35;99664.38;;;12.62;100.00
37848;BME280;23688;33.130;-117.188;2023-05-08T09:43:13;99659.72;;;12.53;100.00
37848;BME280;23688;33.130;-117.188;2023-05-08T09:45:40;99667.44;;;12.50;100.00
37848;BME280;23688;33.130;-117.188;2023-05-08T09:48:09;99664.81;;;12.50;100.00
37848;BME280;23688;33.130;-117.188;2023-05-08T09:50:36;99659.56;;;12.49;100.00
37848;BME280;23688;33.130;-117.188;2023-05-08T09:53:02;99664.78;;;12.49;100.00
37848;BME280;23688;33.130;-117.188;2023-05-08T09:55:45;99666.44;;;12.47;100.00
37848;BME280;23688;33.130;-117.188;2023-05-08T09:58:12;99654.13;;;12.42;100.00
37848;BME280;23688;33.130;-117.188;2023-05-08T10:00:38;99657.75;;;12.46;100.00
37848;BME280;23688;33.130;-117.188;2023-05-08T10:03:05;99658.50;;;12.43;100.00
37848;BME280;23688;33.130;-117.188;2023-05-08T10:05:33;99658.56;;;12.45;100.00
37848;BME280;23688;33.130;-117.188;2023-05-08T10:08:22;99666.19;;;12.40;100.00
37848;BME280;23688;33.130;-117.188;2023-05-08T10:10:48;99658.22;;;12.36;100.00
37848;BME280;23688;33.130;-117.188;2023-05-08T10:13:15;99669.38;;;12.32;100.00
37848;BME280;23688;33.130;-117.188;2023-05-08T10:15:42;99660.63;;;12.30;100.00
37848;BME280;23688;33.130;-117.188;2023-05-08T10:18:09;99662.19;;;12.26;100.00
37848;BME280;23688;33.130;-117.188;2023-05-08T10:20:41;99653.41;;;12.23;100.00
37848;BME280;23688;33.130;-117.188;2023-05-08T10:23:14;99664.81;;;12.26;100.00
37848;BME280;23688;33.130;-117.188;2023-05-08T10:25:46;99663.03;;;12.25;100.00
37848;BME280;23688;33.130;-117.188;2023-05-08T10:28:39;99659.91;;;12.34;100.00
37848;BME280;23688;33.130;-117.188;2023-05-08T10:31:10;99659.91;;;12.34;100.00
37848;BME280;23688;33.130;-117.188;2023-05-08T10:33:40;99648.41;;;12.29;100.00
37848;BME280;23688;33.130;-117.188;2023-05-08T10:36:10;99648.66;;;12.35;100.00
37848;BME280;23688;33.130;-117.188;2023-05-08T10:38:39;99651.44;;;12.39;100.00
37848;BME280;23688;33.130;-117.188;2023-05-08T10:41:07;99640.06;;;12.37;100.00
37848;BME280;23688;33.130;-117.188;2023-05-08T10:43:35;99621.78;;;12.36;100.00
37848;BME280;23688;33.130;-117.188;2023-05-08T10:46:15;99643.97;;;12.49;100.00
37848;BME280;23688;33.130;-117.188;2023-05-08T10:48:47;99638.69;;;12.47;100.00
37848;BME280;23688;33.130;-117.188;2023-05-08T10:51:32;99648.50;;;12.54;100.00
37848;BME280;23688;33.130;-117.188;2023-05-08T10:57:11;99650.31;;;12.57;100.00
37848;BME280;23688;33.130;-117.188;2023-05-08T10:59:37;99645.78;;;12.51;100.00
37848;BME280;23688;33.130;-117.188;2023-05-08T11:02:07;99652.13;;;12.59;100.00
37848;BME280;23688;33.130;-117.188;2023-05-08T11:04:33;99655.63;;;12.60;100.00
37848;BME280;23688;33.130;-117.188;2023-05-08T11:07:00;99652.13;;;12.59;100.00
37848;BME280;23688;33.130;-117.188;2023-05-08T11:09:48;99658.28;;;12.61;100.00
37848;BME280;23688;33.130;-117.188;2023-05-08T11:12:24;99657.25;;;12.56;100.00
37848;BME280;23688;33.130;-117.188;2023-05-08T11:15:05;99660.03;;;12.61;100.00
37848;BME280;23688;33.130;-117.188;2023-05-08T11:17:32;99655.69;;;12.61;100.00
37848;BME280;23688;33.130;-117.188;2023-05-08T11:20:01;99654.06;;;12.65;100.00
37848;BME280;23688;33.130;-117.188;2023-05-08T11:22:32;99657.59;;;12.66;100.00
37848;BME280;23688;33.130;-117.188;2023-05-08T11:25:09;99649.75;;;12.66;100.00
37848;BME280;23688;33.130;-117.188;2023-05-08T11:30:37;99653.34;;;12.69;100.00
37848;BME280;23688;33.130;-117.188;2023-05-08T11:38:21;99665.44;;;12.67;100.00
37848;BME280;23688;33.130;-117.188;2023-05-08T11:46:06;99653.78;;;12.57;100.00
37848;BME280;23688;33.130;-117.188;2023-05-08T11:48:35;99666.28;;;12.66;100.00
37848;BME280;23688;33.130;-117.188;2023-05-08T11:51:02;99663.69;;;12.68;100.00
37848;BME280;23688;33.130;-117.188;2023-05-08T11:53:29;99666.47;;;12.72;100.00
37848;BME280;23688;33.130;-117.188;2023-05-08T11:55:56;99666.63;;;12.77;100.00
37848;BME280;23688;33.130;-117.188;2023-05-08T11:58:23;99667.53;;;12.77;100.00
37848;BME280;23688;33.130;-117.188;2023-05-08T12:00:49;99659.88;;;12.82;100.00
37848;BME280;23688;33.130;-117.188;2023-05-08T12:03:17;99663.47;;;12.85;100.00
37848;BME280;23688;33.130;-117.188;2023-05-08T12:05:46;99663.41;;;12.84;100.00
37848;BME280;23688;33.130;-117.188;2023-05-08T12:08:14;99664.44;;;12.88;100.00
37848;BME280;23688;33.130;-117.188;2023-05-08T12:10:56;99667.22;;;12.94;100.00
37848;BME280;23688;33.130;-117.188;2023-05-08T12:13:25;99654.88;;;12.88;100.00
37848;BME280;23688;33.130;-117.188;2023-05-08T12:15:59;99654.03;;;12.89;100.00
37848;BME280;23688;33.130;-117.188;2023-05-08T12:18:27;99673.38;;;12.96;100.00
37848;BME280;23688;33.130;-117.188;2023-05-08T12:20:59;99659.50;;;12.97;100.00
37848;BME280;23688;33.130;-117.188;2023-05-08T12:23:27;99664.84;;;13.00;100.00
37848;BME280;23688;33.130;-117.188;2023-05-08T12:26:00;99665.72;;;13.00;100.00
37848;BME280;23688;33.130;-117.188;2023-05-08T12:28:27;99664.97;;;13.04;100.00
37848;BME280;23688;33.130;-117.188;2023-05-08T12:30:54;99668.53;;;13.06;100.00
37848;BME280;23688;33.130;-117.188;2023-05-08T12:33:21;99659.09;;;13.10;100.00
37848;BME280;23688;33.130;-117.188;2023-05-08T12:35:48;99648.53;;;13.05;100.00
37848;BME280;23688;33.130;-117.188;2023-05-08T12:38:15;99650.50;;;13.13;100.00
37848;BME280;23688;33.130;-117.188;2023-05-08T12:40:46;99654.94;;;13.15;100.00
37848;BME280;23688;33.130;-117.188;2023-05-08T12:43:17;99659.44;;;13.21;100.00
37848;BME280;23688;33.130;-117.188;2023-05-08T12:45:44;99663.88;;;13.23;100.00
37848;BME280;23688;33.130;-117.188;2023-05-08T12:48:11;99668.28;;;13.24;100.00
37848;BME280;23688;33.130;-117.188;2023-05-08T12:50:44;99646.38;;;13.19;100.00
37848;BME280;23688;33.130;-117.188;2023-05-08T12:53:15;99669.00;;;13.20;100.00
37848;BME280;23688;33.130;-117.188;2023-05-08T12:55:55;99658.66;;;13.23;100.00
37848;BME280;23688;33.130;-117.188;2023-05-08T12:58:33;99655.25;;;13.24;100.00
37848;BME280;23688;33.130;-117.188;2023-05-08T13:01:04;99655.38;;;13.27;100.00
37848;BME280;23688;33.130;-117.188;2023-05-08T13:03:33;99656.13;;;13.25;100.00
37848;BME280;23688;33.130;-117.188;2023-05-08T13:06:00;99654.41;;;13.25;100.00
37848;BME280;23688;33.130;-117.188;2023-05-08T13:08:37;99656.06;;;13.23;100.00
37848;BME280;23688;33.130;-117.188;2023-05-08T13:11:04;99658.91;;;13.30;100.00
37848;BME280;23688;33.130;-117.188;2023-05-08T13:13:35;99641.19;;;13.19;100.00
37848;BME280;23688;33.130;-117.188;2023-05-08T13:16:29;99664.22;;;13.33;100.00
37848;BME280;23688;33.130;-117.188;2023-05-08T13:19:06;99673.00;;;13.35;100.00
37848;BME280;23688;33.130;-117.188;2023-05-08T13:21:32;99670.28;;;13.32;100.00
37848;BME280;23688;33.130;-117.188;2023-05-08T13:23:59;99678.31;;;13.38;100.00
37848;BME280;23688;33.130;-117.188;2023-05-08T13:26:27;99674.91;;;13.40;100.00
37848;BME280;23688;33.130;-117.188;2023-05-08T13:28:53;99680.19;;;13.42;100.00